createdAt,value
2018-06-15T00:01:08.523Z,24.49
2018-06-15T00:02:17.941Z,24.49
2018-06-15T00:03:27.361Z,24.43
2018-06-15T00:04:37.034Z,24.49
2018-06-15T00:05:46.190Z,24.46
2018-06-15T00:06:55.603Z,24.46
2018-06-15T00:08:04.494Z,24.42
2018-06-15T00:09:13.444Z,24.49
2018-06-15T00:10:23.381Z,24.46
2018-06-15T00:11:32.801Z,24.47
2018-06-15T00:12:42.252Z,24.43
2018-06-15T00:13:51.939Z,24.47
2018-06-15T00:15:01.087Z,24.47
2018-06-15T00:16:10.288Z,24.46
2018-06-15T00:17:19.696Z,24.49
2018-06-15T00:18:28.844Z,24.4
2018-06-15T00:19:38.533Z,24.47
2018-06-15T00:20:48.209Z,24.4
2018-06-15T00:21:57.115Z,24.43
2018-06-15T00:23:06.009Z,24.43
2018-06-15T00:24:15.952Z,24.47
2018-06-15T00:25:25.380Z,24.49
2018-06-15T00:26:34.779Z,24.43
2018-06-15T00:27:43.957Z,24.47
2018-06-15T00:28:53.122Z,24.5
2018-06-15T00:30:02.278Z,24.4
2018-06-15T00:31:11.953Z,24.42
2018-06-15T00:32:21.405Z,24.39
2018-06-15T00:33:30.809Z,24.3
2018-06-15T00:34:39.957Z,24.46
2018-06-15T00:35:49.379Z,24.42
2018-06-15T00:36:58.295Z,24.46
2018-06-15T00:38:07.989Z,24.42
2018-06-15T00:39:17.413Z,24.46
2018-06-15T00:40:26.834Z,24.46
2018-06-15T00:41:36.000Z,24.42
2018-06-15T00:42:45.158Z,24.46
2018-06-15T00:43:54.319Z,24.43
2018-06-15T00:45:04.023Z,24.43
2018-06-15T00:46:13.189Z,24.46
2018-06-15T00:47:22.604Z,24.43
2018-06-15T00:48:32.268Z,24.37
2018-06-15T00:49:41.435Z,24.45
2018-06-15T00:50:50.570Z,24.43
2018-06-15T00:51:59.733Z,24.45
2018-06-15T00:53:09.150Z,24.47
2018-06-15T00:54:17.789Z,24.39
2018-06-15T00:55:26.938Z,24.45
2018-06-15T00:56:36.400Z,24.45
2018-06-15T00:57:45.815Z,24.42
2018-06-15T00:58:54.986Z,24.39
2018-06-15T01:00:04.412Z,24.39
2018-06-15T01:01:13.840Z,24.42
2018-06-15T01:02:23.525Z,24.43
2018-06-15T01:03:32.162Z,24.35
2018-06-15T01:04:41.842Z,24.4
2018-06-15T01:05:51.020Z,24.39
2018-06-15T01:07:00.169Z,24.45
2018-06-15T01:08:09.850Z,24.42
2018-06-15T01:09:19.516Z,24.42
2018-06-15T01:10:28.928Z,24.4
2018-06-15T01:11:37.594Z,24.46
2018-06-15T01:12:46.746Z,24.46
2018-06-15T01:13:56.170Z,24.32
2018-06-15T01:15:05.915Z,24.42
2018-06-15T01:16:15.841Z,24.34
2018-06-15T01:17:25.266Z,24.46
2018-06-15T01:18:35.093Z,24.43
2018-06-15T01:19:44.508Z,24.37
2018-06-15T01:20:54.190Z,24.37
2018-06-15T01:22:03.363Z,24.43
2018-06-15T01:23:13.028Z,24.49
2018-06-15T01:24:22.501Z,24.45
2018-06-15T01:25:31.928Z,24.35
2018-06-15T01:26:41.100Z,24.42
2018-06-15T01:27:50.761Z,24.42
2018-06-15T01:29:00.164Z,24.37
2018-06-15T01:30:09.591Z,24.46
2018-06-15T01:31:19.001Z,24.42
2018-06-15T01:32:28.434Z,24.43
2018-06-15T01:33:37.602Z,24.46
2018-06-15T01:34:46.839Z,24.31
2018-06-15T01:35:56.517Z,24.46
2018-06-15T01:37:05.415Z,24.37
2018-06-15T01:38:15.350Z,24.31
2018-06-15T01:39:25.044Z,24.42
2018-06-15T01:40:34.744Z,24.4
2018-06-15T01:41:44.168Z,24.37
2018-06-15T01:42:54.085Z,24.34
2018-06-15T01:44:03.485Z,24.42
2018-06-15T01:45:12.393Z,24.37
2018-06-15T01:46:21.809Z,24.28
2018-06-15T01:47:31.263Z,24.31
2018-06-15T01:48:40.967Z,24.4
2018-06-15T01:49:50.631Z,24.37
2018-06-15T01:50:59.804Z,24.31
2018-06-15T01:52:08.981Z,24.34
2018-06-15T01:53:18.406Z,24.4
2018-06-15T01:54:27.376Z,24.34
2018-06-15T01:55:36.798Z,24.3
2018-06-15T01:56:46.208Z,24.37
2018-06-15T01:57:55.620Z,24.45
2018-06-15T01:59:05.292Z,24.31
2018-06-15T02:00:14.718Z,24.46
2018-06-15T02:01:24.621Z,24.42
2018-06-15T02:02:34.781Z,24.31
2018-06-15T02:03:44.721Z,24.42
2018-06-15T02:04:54.133Z,24.37
2018-06-15T02:06:03.805Z,24.39
2018-06-15T02:07:13.211Z,24.37
2018-06-15T02:08:22.397Z,24.4
2018-06-15T02:09:32.324Z,24.31
2018-06-15T02:10:41.469Z,24.47
2018-06-15T02:11:50.632Z,24.43
2018-06-15T02:13:00.057Z,24.47
2018-06-15T02:14:10.113Z,24.37
2018-06-15T02:15:19.285Z,24.31
2018-06-15T02:16:28.447Z,24.43
2018-06-15T02:17:37.364Z,24.43
2018-06-15T02:18:46.517Z,24.52
2018-06-15T02:19:56.186Z,24.34
2018-06-15T02:21:05.352Z,24.34
2018-06-15T02:22:15.021Z,24.39
2018-06-15T02:23:24.447Z,24.32
2018-06-15T02:24:33.884Z,24.31
2018-06-15T02:25:43.727Z,24.45
2018-06-15T02:26:53.142Z,24.32
2018-06-15T02:28:02.301Z,24.32
2018-06-15T02:29:11.721Z,24.4
2018-06-15T02:30:21.644Z,24.35
2018-06-15T02:31:31.074Z,24.43
2018-06-15T02:32:40.497Z,24.46
2018-06-15T02:33:50.358Z,24.35
2018-06-15T02:34:59.786Z,24.32
2018-06-15T02:36:09.213Z,24.4
2018-06-15T02:37:18.648Z,24.4
2018-06-15T02:38:28.590Z,24.45
2018-06-15T02:39:38.264Z,24.31
2018-06-15T02:40:48.188Z,24.42
2018-06-15T02:41:57.859Z,24.34
2018-06-15T02:43:07.028Z,24.35
2018-06-15T02:44:16.696Z,24.31
2018-06-15T02:45:26.485Z,24.32
2018-06-15T02:46:36.738Z,24.28
2018-06-15T02:47:45.899Z,24.32
2018-06-15T02:48:55.326Z,24.31
2018-06-15T02:50:03.966Z,24.43
2018-06-15T02:51:13.653Z,24.42
2018-06-15T02:52:23.346Z,24.4
2018-06-15T02:53:32.762Z,24.43
2018-06-15T02:54:42.202Z,24.3
2018-06-15T02:55:51.104Z,24.32
2018-06-15T02:57:00.522Z,24.28
2018-06-15T02:58:09.960Z,24.42
2018-06-15T02:59:19.643Z,24.32
2018-06-15T03:00:29.334Z,24.3
2018-06-15T03:01:38.491Z,24.43
2018-06-15T03:02:47.947Z,24.43
2018-06-15T03:03:57.351Z,24.28
2018-06-15T03:05:06.249Z,24.43
2018-06-15T03:06:15.483Z,24.47
2018-06-15T03:07:25.182Z,24.42
2018-06-15T03:08:34.625Z,24.31
2018-06-15T03:09:44.320Z,24.47
2018-06-15T03:10:54.287Z,24.31
2018-06-15T03:12:04.000Z,24.39
2018-06-15T03:13:13.966Z,24.45
2018-06-15T03:14:23.912Z,24.32
2018-06-15T03:15:33.832Z,24.3
2018-06-15T03:16:43.814Z,24.28
2018-06-15T03:17:53.479Z,24.34
2018-06-15T03:19:02.909Z,24.42
2018-06-15T03:20:12.825Z,24.24
2018-06-15T03:21:22.484Z,24.3
2018-06-15T03:22:31.369Z,24.46
2018-06-15T03:23:40.788Z,24.34
2018-06-15T03:24:50.225Z,24.27
2018-06-15T03:25:59.376Z,24.31
2018-06-15T03:27:08.529Z,24.4
2018-06-15T03:28:18.217Z,24.45
2018-06-15T03:29:27.633Z,24.3
2018-06-15T03:30:37.290Z,24.31
2018-06-15T03:31:46.769Z,24.42
2018-06-15T03:32:56.705Z,24.42
2018-06-15T03:34:06.121Z,24.34
2018-06-15T03:35:15.271Z,24.34
2018-06-15T03:36:24.929Z,24.34
2018-06-15T03:37:34.167Z,24.3
2018-06-15T03:38:43.274Z,24.27
2018-06-15T03:39:52.456Z,24.32
2018-06-15T03:41:01.875Z,24.34
2018-06-15T03:42:11.044Z,24.28
2018-06-15T03:43:19.958Z,24.45
2018-06-15T03:44:29.398Z,24.45
2018-06-15T03:45:39.082Z,24.32
2018-06-15T03:46:49.022Z,24.34
2018-06-15T03:47:58.724Z,24.31
2018-06-15T03:49:08.477Z,24.37
2018-06-15T03:50:17.921Z,24.34
2018-06-15T03:51:27.611Z,24.42
2018-06-15T03:52:37.401Z,24.37
2018-06-15T03:53:47.080Z,24.39
2018-06-15T03:54:56.252Z,24.2
2018-06-15T03:56:05.414Z,24.37
2018-06-15T03:57:14.894Z,24.34
2018-06-15T03:58:24.576Z,24.31
2018-06-15T03:59:33.750Z,24.3
2018-06-15T04:00:42.907Z,24.3
2018-06-15T04:01:52.113Z,24.3
2018-06-15T04:03:01.011Z,24.28
2018-06-15T04:04:10.438Z,24.24
2018-06-15T04:05:19.593Z,24.27
2018-06-15T04:06:28.781Z,24.22
2018-06-15T04:07:38.894Z,24.15
2018-06-15T04:08:48.631Z,24.18
2018-06-15T04:09:58.313Z,24.15
2018-06-15T04:11:07.743Z,24.22
2018-06-15T04:12:17.683Z,24.18
2018-06-15T04:13:27.620Z,24.18
2018-06-15T04:14:36.538Z,24.08
2018-06-15T04:15:45.950Z,24.15
2018-06-15T04:16:55.140Z,24.06
2018-06-15T04:18:04.569Z,24.15
2018-06-15T04:19:13.979Z,24.13
2018-06-15T04:20:23.131Z,24.16
2018-06-15T04:21:32.799Z,24.08
2018-06-15T04:22:42.901Z,24.2
2018-06-15T04:23:52.576Z,24.2
2018-06-15T04:25:02.233Z,24.15
2018-06-15T04:26:11.388Z,24
2018-06-15T04:27:21.074Z,24.05
2018-06-15T04:28:30.504Z,24.13
2018-06-15T04:29:40.438Z,24.06
2018-06-15T04:30:50.172Z,24.05
2018-06-15T04:31:59.835Z,24.1
2018-06-15T04:33:08.992Z,24.15
2018-06-15T04:34:18.664Z,24.09
2018-06-15T04:35:27.821Z,23.98
2018-06-15T04:36:36.977Z,24.09
2018-06-15T04:37:46.396Z,24.03
2018-06-15T04:38:55.305Z,24.09
2018-06-15T04:40:04.977Z,24.09
2018-06-15T04:41:13.892Z,24.06
2018-06-15T04:42:23.577Z,24.08
2018-06-15T04:43:33.036Z,24.03
2018-06-15T04:44:42.451Z,24.08
2018-06-15T04:45:51.860Z,24.05
2018-06-15T04:47:01.272Z,24.05
2018-06-15T04:48:10.696Z,23.95
2018-06-15T04:49:19.608Z,24
2018-06-15T04:50:28.762Z,24.08
2018-06-15T04:51:38.441Z,24.05
2018-06-15T04:52:47.629Z,24.05
2018-06-15T04:53:57.039Z,24.05
2018-06-15T04:55:06.444Z,24.08
2018-06-15T04:56:15.941Z,24.08
2018-06-15T04:57:25.713Z,24.06
2018-06-15T04:58:34.881Z,24.05
2018-06-15T04:59:44.333Z,24.02
2018-06-15T05:00:54.276Z,24.06
2018-06-15T05:02:03.725Z,24.06
2018-06-15T05:03:13.516Z,24.09
2018-06-15T05:04:22.818Z,24.1
2018-06-15T05:05:32.266Z,24.06
2018-06-15T05:06:41.961Z,24.08
2018-06-15T05:07:51.966Z,24.1
2018-06-15T05:09:01.133Z,24.12
2018-06-15T05:10:10.817Z,24.16
2018-06-15T05:11:20.763Z,24.18
2018-06-15T05:12:29.908Z,24.09
2018-06-15T05:13:39.422Z,24.15
2018-06-15T05:14:48.735Z,24.15
2018-06-15T05:15:58.426Z,24.05
2018-06-15T05:17:07.894Z,24.2
2018-06-15T05:18:17.330Z,24.18
2018-06-15T05:19:26.231Z,24.21
2018-06-15T05:20:35.637Z,24.16
2018-06-15T05:21:45.579Z,24.21
2018-06-15T05:22:55.268Z,24.15
2018-06-15T05:24:04.718Z,24.18
2018-06-15T05:25:14.152Z,24.18
2018-06-15T05:26:23.566Z,24.24
2018-06-15T05:27:32.776Z,24.09
2018-06-15T05:28:41.975Z,24.2
2018-06-15T05:29:52.338Z,24.24
2018-06-15T05:31:02.025Z,24.16
2018-06-15T05:32:11.231Z,24.24
2018-06-15T05:33:20.913Z,24.22
2018-06-15T05:34:30.317Z,24.16
2018-06-15T05:35:39.750Z,24.2
2018-06-15T05:36:48.936Z,24.31
2018-06-15T05:37:58.357Z,24.2
2018-06-15T05:39:07.782Z,24.09
2018-06-15T05:40:17.198Z,24.12
2018-06-15T05:41:26.607Z,24.31
2018-06-15T05:42:36.099Z,24.24
2018-06-15T05:43:45.671Z,24.24
2018-06-15T05:44:54.834Z,24.2
2018-06-15T05:46:04.526Z,24.25
2018-06-15T05:47:14.203Z,24.24
2018-06-15T05:48:23.392Z,24.22
2018-06-15T05:49:32.820Z,24.21
2018-06-15T05:50:41.730Z,24.27
2018-06-15T05:51:51.421Z,24.2
2018-06-15T05:53:00.571Z,24.24
2018-06-15T05:54:10.042Z,24.22
2018-06-15T05:55:19.451Z,24.08
2018-06-15T05:56:28.851Z,24.3
2018-06-15T05:57:38.543Z,24.22
2018-06-15T05:58:48.226Z,24.21
2018-06-15T05:59:57.413Z,24.22
2018-06-15T06:01:06.847Z,24.09
2018-06-15T06:02:16.278Z,24.24
2018-06-15T06:03:25.683Z,24.22
2018-06-15T06:04:35.411Z,24.22
2018-06-15T06:05:45.263Z,24.15
2018-06-15T06:06:56.348Z,24.25
2018-06-15T06:08:06.032Z,24.18
2018-06-15T06:09:15.207Z,24.18
2018-06-15T06:10:24.889Z,24.22
2018-06-15T06:11:34.829Z,24.16
2018-06-15T06:12:44.018Z,24.24
2018-06-15T06:13:53.188Z,24.24
2018-06-15T06:15:02.646Z,24.1
2018-06-15T06:16:12.350Z,24.3
2018-06-15T06:17:21.787Z,24.22
2018-06-15T06:18:31.452Z,24.27
2018-06-15T06:19:41.389Z,24.18
2018-06-15T06:20:51.223Z,24.27
2018-06-15T06:22:00.936Z,24.22
2018-06-15T06:23:10.118Z,24.28
2018-06-15T06:24:18.828Z,24.27
2018-06-15T06:25:28.030Z,24.28
2018-06-15T06:26:37.992Z,24.34
2018-06-15T06:27:48.011Z,24.27
2018-06-15T06:28:57.183Z,24.34
2018-06-15T06:30:06.681Z,24.24
2018-06-15T06:31:15.858Z,24.34
2018-06-15T06:32:25.027Z,24.28
2018-06-15T06:33:34.239Z,24.28
2018-06-15T06:34:43.925Z,24.28
2018-06-15T06:35:53.102Z,24.32
2018-06-15T06:37:02.781Z,24.27
2018-06-15T06:38:12.733Z,24.25
2018-06-15T06:39:22.418Z,24.25
2018-06-15T06:40:32.097Z,24.24
2018-06-15T06:41:41.265Z,24.35
2018-06-15T06:42:50.683Z,24.25
2018-06-15T06:43:59.597Z,24.32
2018-06-15T06:45:09.118Z,24.3
2018-06-15T06:46:18.019Z,24.27
2018-06-15T06:47:27.425Z,24.34
2018-06-15T06:48:37.097Z,24.31
2018-06-15T06:49:46.550Z,24.34
2018-06-15T06:50:55.974Z,24.43
2018-06-15T06:52:05.918Z,24.32
2018-06-15T06:53:15.604Z,24.31
2018-06-15T06:54:25.293Z,24.45
2018-06-15T06:55:34.725Z,24.4
2018-06-15T06:56:44.244Z,24.3
2018-06-15T06:57:53.686Z,24.39
2018-06-15T06:59:03.117Z,24.43
2018-06-15T07:00:12.266Z,24.31
2018-06-15T07:01:21.430Z,24.31
2018-06-15T07:02:30.599Z,24.46
2018-06-15T07:03:39.517Z,24.3
2018-06-15T07:04:49.196Z,24.39
2018-06-15T07:05:58.865Z,24.34
2018-06-15T07:07:08.284Z,24.28
2018-06-15T07:08:17.506Z,24.43
2018-06-15T07:09:27.069Z,24.3
2018-06-15T07:10:36.754Z,24.31
2018-06-15T07:11:46.688Z,24.3
2018-06-15T07:12:55.854Z,24.42
2018-06-15T07:14:05.540Z,24.42
2018-06-15T07:15:15.213Z,24.28
2018-06-15T07:16:24.657Z,24.47
2018-06-15T07:17:34.338Z,24.34
2018-06-15T07:18:43.801Z,24.42
2018-06-15T07:19:53.499Z,24.34
2018-06-15T07:21:02.689Z,24.34
2018-06-15T07:22:11.843Z,24.4
2018-06-15T07:23:21.268Z,24.31
2018-06-15T07:24:31.214Z,24.31
2018-06-15T07:25:40.396Z,24.3
2018-06-15T07:26:49.572Z,24.35
2018-06-15T07:27:58.492Z,24.35
2018-06-15T07:29:08.409Z,24.37
2018-06-15T07:30:17.835Z,24.37
2018-06-15T07:31:27.252Z,24.37
2018-06-15T07:32:36.691Z,24.34
2018-06-15T07:33:46.640Z,24.31
2018-06-15T07:34:56.091Z,24.35
2018-06-15T07:36:05.030Z,24.34
2018-06-15T07:37:14.509Z,24.32
2018-06-15T07:38:24.195Z,24.31
2018-06-15T07:39:33.632Z,24.43
2018-06-15T07:40:43.564Z,24.49
2018-06-15T07:41:52.741Z,24.35
2018-06-15T07:43:01.650Z,24.43
2018-06-15T07:44:10.822Z,24.28
2018-06-15T07:45:19.988Z,24.3
2018-06-15T07:46:29.394Z,24.4
2018-06-15T07:47:39.076Z,24.28
2018-06-15T07:48:48.248Z,24.28
2018-06-15T07:49:57.421Z,24.45
2018-06-15T07:51:06.613Z,24.37
2018-06-15T07:52:16.299Z,24.3
2018-06-15T07:53:26.218Z,24.28
2018-06-15T07:54:35.644Z,24.32
2018-06-15T07:55:44.793Z,24.45
2018-06-15T07:56:54.281Z,24.31
2018-06-15T07:58:03.959Z,24.3
2018-06-15T07:59:13.385Z,24.28
2018-06-15T08:00:22.582Z,24.42
2018-06-15T08:01:31.497Z,24.35
2018-06-15T08:02:40.668Z,24.32
2018-06-15T08:03:50.117Z,24.3
2018-06-15T08:04:59.547Z,24.31
2018-06-15T08:06:08.470Z,24.42
2018-06-15T08:07:18.172Z,24.4
2018-06-15T08:08:27.578Z,24.34
2018-06-15T08:09:36.744Z,24.43
2018-06-15T08:10:46.183Z,24.34
2018-06-15T08:11:55.611Z,24.45
2018-06-15T08:13:05.317Z,24.31
2018-06-15T08:14:14.511Z,24.46
2018-06-15T08:15:24.189Z,24.32
2018-06-15T08:16:33.346Z,24.46
2018-06-15T08:17:42.508Z,24.34
2018-06-15T08:18:51.918Z,24.31
2018-06-15T08:20:00.836Z,24.31
2018-06-15T08:21:10.518Z,24.34
2018-06-15T08:22:20.199Z,24.46
2018-06-15T08:23:29.113Z,24.45
2018-06-15T08:24:38.796Z,24.37
2018-06-15T08:25:47.951Z,24.4
2018-06-15T08:26:57.640Z,24.37
2018-06-15T08:28:07.329Z,24.35
2018-06-15T08:29:17.287Z,24.3
2018-06-15T08:30:26.970Z,24.28
2018-06-15T08:31:36.650Z,24.32
2018-06-15T08:32:46.106Z,24.34
2018-06-15T08:33:55.531Z,24.43
2018-06-15T08:35:05.215Z,24.46
2018-06-15T08:36:14.643Z,24.35
2018-06-15T08:37:23.818Z,24.34
2018-06-15T08:38:33.041Z,24.31
2018-06-15T08:39:42.231Z,24.39
2018-06-15T08:40:51.403Z,24.46
2018-06-15T08:42:01.346Z,24.4
2018-06-15T08:43:10.574Z,24.31
2018-06-15T08:44:20.270Z,24.4
2018-06-15T08:45:29.703Z,24.34
2018-06-15T08:46:39.128Z,24.31
2018-06-15T08:47:49.066Z,24.46
2018-06-15T08:48:58.225Z,24.45
2018-06-15T08:50:07.657Z,24.31
2018-06-15T08:51:17.153Z,24.37
2018-06-15T08:52:26.907Z,24.31
2018-06-15T08:53:36.584Z,24.32
2018-06-15T08:54:45.739Z,24.37
2018-06-15T08:55:54.635Z,24.43
2018-06-15T08:57:04.069Z,24.34
2018-06-15T08:58:13.473Z,24.34
2018-06-15T08:59:23.411Z,24.4
2018-06-15T09:00:33.090Z,24.43
2018-06-15T09:01:42.779Z,24.34
2018-06-15T09:02:51.947Z,24.42
2018-06-15T09:04:01.139Z,24.34
2018-06-15T09:05:10.324Z,24.37
2018-06-15T09:06:19.265Z,24.46
2018-06-15T09:07:28.687Z,24.37
2018-06-15T09:08:38.388Z,24.32
2018-06-15T09:09:47.800Z,24.37
2018-06-15T09:10:57.497Z,24.28
2018-06-15T09:12:06.671Z,24.39
2018-06-15T09:13:15.850Z,24.43
2018-06-15T09:14:25.577Z,24.46
2018-06-15T09:15:34.729Z,24.31
2018-06-15T09:16:44.412Z,24.35
2018-06-15T09:17:53.608Z,24.46
2018-06-15T09:19:02.765Z,24.43
2018-06-15T09:20:12.291Z,24.42
2018-06-15T09:21:21.970Z,24.35
2018-06-15T09:22:31.170Z,24.37
2018-06-15T09:23:40.600Z,24.39
2018-06-15T09:24:49.771Z,24.46
2018-06-15T09:25:58.688Z,24.32
2018-06-15T09:27:08.113Z,24.4
2018-06-15T09:28:17.325Z,24.45
2018-06-15T09:29:26.743Z,24.31
2018-06-15T09:30:36.429Z,24.46
2018-06-15T09:31:45.661Z,24.5
2018-06-15T09:32:55.120Z,24.31
2018-06-15T09:34:03.802Z,24.35
2018-06-15T09:35:13.215Z,24.35
2018-06-15T09:36:22.460Z,24.35
2018-06-15T09:37:31.889Z,24.34
2018-06-15T09:38:41.334Z,24.39
2018-06-15T09:39:51.027Z,24.4
2018-06-15T09:40:59.922Z,24.45
2018-06-15T09:42:09.789Z,24.47
2018-06-15T09:43:19.770Z,24.4
2018-06-15T09:44:29.193Z,24.42
2018-06-15T09:45:39.134Z,24.49
2018-06-15T09:46:48.558Z,24.39
2018-06-15T09:47:58.254Z,24.31
2018-06-15T09:49:07.672Z,24.37
2018-06-15T09:50:17.115Z,24.37
2018-06-15T09:51:26.029Z,24.45
2018-06-15T09:52:35.221Z,24.49
2018-06-15T09:53:44.665Z,24.39
2018-06-15T09:54:54.354Z,24.37
2018-06-15T09:56:03.546Z,24.35
2018-06-15T09:57:13.050Z,24.42
2018-06-15T09:58:22.485Z,24.45
2018-06-15T09:59:31.464Z,24.4
2018-06-15T10:00:40.695Z,24.42
2018-06-15T10:01:50.432Z,24.5
2018-06-15T10:02:59.624Z,24.45
2018-06-15T10:04:09.819Z,24.4
2018-06-15T10:05:18.927Z,24.43
2018-06-15T10:06:27.580Z,24.5
2018-06-15T10:07:37.007Z,24.46
2018-06-15T10:08:46.178Z,24.43
2018-06-15T10:09:55.604Z,24.4
2018-06-15T10:11:04.798Z,24.34
2018-06-15T10:12:13.945Z,24.4
2018-06-15T10:13:23.352Z,24.45
2018-06-15T10:14:32.527Z,24.39
2018-06-15T10:15:41.694Z,24.37
2018-06-15T10:16:51.457Z,24.46
2018-06-15T10:18:01.142Z,24.47
2018-06-15T10:19:10.050Z,24.42
2018-06-15T10:20:19.216Z,24.42
2018-06-15T10:21:28.638Z,24.45
2018-06-15T10:22:37.544Z,24.46
2018-06-15T10:23:47.241Z,24.42
2018-06-15T10:24:56.400Z,24.45
2018-06-15T10:26:05.581Z,24.47
2018-06-15T10:27:15.355Z,24.49
2018-06-15T10:28:24.897Z,24.49
2018-06-15T10:29:34.580Z,24.4
2018-06-15T10:30:44.003Z,24.46
2018-06-15T10:31:53.725Z,24.45
2018-06-15T10:33:03.790Z,24.46
2018-06-15T10:34:13.049Z,24.47
2018-06-15T10:35:22.228Z,24.45
2018-06-15T10:36:31.396Z,24.49
2018-06-15T10:37:41.064Z,24.43
2018-06-15T10:38:50.234Z,24.45
2018-06-15T10:39:59.427Z,24.47
2018-06-15T10:41:08.855Z,24.43
2018-06-15T10:42:18.275Z,24.46
2018-06-15T10:43:28.225Z,24.46
2018-06-15T10:44:37.964Z,24.46
2018-06-15T10:45:47.664Z,24.49
2018-06-15T10:46:57.114Z,24.43
2018-06-15T10:48:06.542Z,24.43
2018-06-15T10:49:15.204Z,24.43
2018-06-15T10:50:24.375Z,24.42
2018-06-15T10:51:33.796Z,24.43
2018-06-15T10:52:42.696Z,24.49
2018-06-15T10:53:52.366Z,24.52
2018-06-15T10:55:02.037Z,24.47
2018-06-15T10:56:11.272Z,24.49
2018-06-15T10:57:21.079Z,24.42
2018-06-15T10:58:30.252Z,24.5
2018-06-15T10:59:38.929Z,24.47
2018-06-15T11:00:48.341Z,24.47
2018-06-15T11:01:57.788Z,24.47
2018-06-15T11:03:06.712Z,24.52
2018-06-15T11:04:15.644Z,24.49
2018-06-15T11:05:25.334Z,24.47
2018-06-15T11:06:34.252Z,24.49
2018-06-15T11:07:43.677Z,24.46
2018-06-15T11:08:53.368Z,24.47
2018-06-15T11:10:03.147Z,24.55
2018-06-15T11:11:12.593Z,24.45
2018-06-15T11:12:21.546Z,24.49
2018-06-15T11:13:31.027Z,24.5
2018-06-15T11:14:40.705Z,24.46
2018-06-15T11:15:49.904Z,24.52
2018-06-15T11:16:59.402Z,24.47
2018-06-15T11:18:08.630Z,24.52
2018-06-15T11:19:17.807Z,24.47
2018-06-15T11:20:27.768Z,24.47
2018-06-15T11:21:37.202Z,24.49
2018-06-15T11:22:46.632Z,24.47
2018-06-15T11:23:55.837Z,24.45
2018-06-15T11:25:05.280Z,24.49
2018-06-15T11:26:14.444Z,24.46
2018-06-15T11:27:23.872Z,24.53
2018-06-15T11:28:33.020Z,24.52
2018-06-15T11:29:42.192Z,24.46
2018-06-15T11:30:51.117Z,24.52
2018-06-15T11:32:00.482Z,24.42
2018-06-15T11:33:09.656Z,24.52
2018-06-15T11:34:19.595Z,24.5
2018-06-15T11:35:28.254Z,24.53
2018-06-15T11:36:37.683Z,24.58
2018-06-15T11:37:47.367Z,24.5
2018-06-15T11:38:56.812Z,24.47
2018-06-15T11:40:05.994Z,24.52
2018-06-15T11:41:15.673Z,24.46
2018-06-15T11:42:25.816Z,24.57
2018-06-15T11:43:35.248Z,24.47
2018-06-15T11:44:45.182Z,24.49
2018-06-15T11:45:54.344Z,24.46
2018-06-15T11:47:03.504Z,24.5
2018-06-15T11:48:12.658Z,24.42
2018-06-15T11:49:21.566Z,24.43
2018-06-15T11:50:30.488Z,24.5
2018-06-15T11:51:39.656Z,24.5
2018-06-15T11:52:48.829Z,24.47
2018-06-15T11:53:58.254Z,24.53
2018-06-15T11:55:07.443Z,24.47
2018-06-15T11:56:16.857Z,24.5
2018-06-15T11:57:25.834Z,24.47
2018-06-15T11:58:36.145Z,24.53
2018-06-15T11:59:45.325Z,24.4
2018-06-15T12:00:54.777Z,24.47
2018-06-15T12:02:04.489Z,24.52
2018-06-15T12:03:14.253Z,24.46
2018-06-15T12:04:23.692Z,24.46
2018-06-15T12:05:32.615Z,24.55
2018-06-15T12:06:42.043Z,24.47
2018-06-15T12:07:51.526Z,24.46
2018-06-15T12:09:01.098Z,24.5
2018-06-15T12:10:10.545Z,24.45
2018-06-15T12:11:19.746Z,24.52
2018-06-15T12:12:28.919Z,24.47
2018-06-15T12:13:38.601Z,24.46
2018-06-15T12:14:48.021Z,24.47
2018-06-15T12:15:57.950Z,24.46
2018-06-15T12:17:07.413Z,24.45
2018-06-15T12:18:16.323Z,24.53
2018-06-15T12:19:25.256Z,24.5
2018-06-15T12:20:34.936Z,24.47
2018-06-15T12:21:44.413Z,24.5
2018-06-15T12:22:53.582Z,24.47
2018-06-15T12:24:02.759Z,24.52
2018-06-15T12:25:11.943Z,24.55
2018-06-15T12:26:21.363Z,24.46
2018-06-15T12:27:31.049Z,24.55
2018-06-15T12:28:40.572Z,24.5
2018-06-15T12:29:49.466Z,24.5
2018-06-15T12:30:58.649Z,24.5
2018-06-15T12:32:07.810Z,24.58
2018-06-15T12:33:16.979Z,24.55
2018-06-15T12:34:26.676Z,24.57
2018-06-15T12:35:35.830Z,24.47
2018-06-15T12:36:44.724Z,24.53
2018-06-15T12:37:54.176Z,24.52
2018-06-15T12:39:03.376Z,24.55
2018-06-15T12:40:12.583Z,24.52
2018-06-15T12:41:22.003Z,24.49
2018-06-15T12:42:31.706Z,24.58
2018-06-15T12:43:41.400Z,24.47
2018-06-15T12:44:50.823Z,24.49
2018-06-15T12:46:00.592Z,24.47
2018-06-15T12:47:10.209Z,24.52
2018-06-15T12:48:20.012Z,24.5
2018-06-15T12:49:29.749Z,24.55
2018-06-15T12:50:39.212Z,24.6
2018-06-15T12:51:49.158Z,24.55
2018-06-15T12:52:58.342Z,24.55
2018-06-15T12:54:07.531Z,24.55
2018-06-15T12:55:16.472Z,24.52
2018-06-15T12:56:26.166Z,24.57
2018-06-15T12:57:35.860Z,24.57
2018-06-15T12:58:45.064Z,24.52
2018-06-15T12:59:54.801Z,24.53
2018-06-15T13:01:04.223Z,24.58
2018-06-15T13:02:13.910Z,24.58
2018-06-15T13:03:23.592Z,24.53
2018-06-15T13:04:33.275Z,24.57
2018-06-15T13:05:42.466Z,24.57
2018-06-15T13:06:51.894Z,24.61
2018-06-15T13:08:02.028Z,24.55
2018-06-15T13:09:12.254Z,24.6
2018-06-15T13:10:21.677Z,24.58
2018-06-15T13:11:31.105Z,24.6
2018-06-15T13:12:40.015Z,24.58
2018-06-15T13:13:49.178Z,24.61
2018-06-15T13:14:58.607Z,24.62
2018-06-15T13:16:07.544Z,24.64
2018-06-15T13:17:17.222Z,24.55
2018-06-15T13:18:26.645Z,24.57
2018-06-15T13:19:35.556Z,24.67
2018-06-15T13:20:44.479Z,24.57
2018-06-15T13:21:53.415Z,24.53
2018-06-15T13:23:02.577Z,24.68
2018-06-15T13:24:11.763Z,24.67
2018-06-15T13:25:21.209Z,24.58
2018-06-15T13:26:30.363Z,24.64
2018-06-15T13:27:39.794Z,24.68
2018-06-15T13:28:49.719Z,24.67
2018-06-15T13:29:59.126Z,24.62
2018-06-15T13:31:08.285Z,24.68
2018-06-15T13:32:18.327Z,24.68
2018-06-15T13:33:28.061Z,24.67
2018-06-15T13:34:37.735Z,24.73
2018-06-15T13:35:47.704Z,24.67
2018-06-15T13:36:57.638Z,24.73
2018-06-15T13:38:06.558Z,24.68
2018-06-15T13:39:15.469Z,24.73
2018-06-15T13:40:24.898Z,24.61
2018-06-15T13:41:33.825Z,24.67
2018-06-15T13:42:43.249Z,24.71
2018-06-15T13:43:52.702Z,24.77
2018-06-15T13:45:02.125Z,24.76
2018-06-15T13:46:11.303Z,24.77
2018-06-15T13:47:20.474Z,24.73
2018-06-15T13:48:30.155Z,24.78
2018-06-15T13:49:39.835Z,24.78
2018-06-15T13:50:49.495Z,24.81
2018-06-15T13:51:59.021Z,24.87
2018-06-15T13:53:08.428Z,24.78
2018-06-15T13:54:18.116Z,24.84
2018-06-15T13:55:27.542Z,24.77
2018-06-15T13:56:37.022Z,24.77
2018-06-15T13:57:46.445Z,24.77
2018-06-15T13:58:55.848Z,24.8
2018-06-15T14:00:05.019Z,24.77
2018-06-15T14:01:14.198Z,24.87
2018-06-15T14:02:23.903Z,24.83
2018-06-15T14:03:33.100Z,24.8
2018-06-15T14:04:42.272Z,24.8
2018-06-15T14:05:51.441Z,24.83
2018-06-15T14:07:01.523Z,24.81
2018-06-15T14:08:11.445Z,24.81
2018-06-15T14:09:20.633Z,24.81
2018-06-15T14:10:29.563Z,24.84
2018-06-15T14:11:39.500Z,24.84
2018-06-15T14:12:49.295Z,24.84
2018-06-15T14:13:59.161Z,24.85
2018-06-15T14:15:08.859Z,24.81
2018-06-15T14:16:18.542Z,24.81
2018-06-15T14:17:28.227Z,24.78
2018-06-15T14:18:37.960Z,24.78
2018-06-15T14:19:47.417Z,24.78
2018-06-15T14:20:57.115Z,24.81
2018-06-15T14:22:06.807Z,24.78
2018-06-15T14:23:16.215Z,24.78
2018-06-15T14:24:24.876Z,24.81
2018-06-15T14:25:34.064Z,24.81
2018-06-15T14:26:44.009Z,24.8
2018-06-15T14:27:53.184Z,24.78
2018-06-15T14:29:02.349Z,24.85
2018-06-15T14:30:11.523Z,24.78
2018-06-15T14:31:21.218Z,24.83
2018-06-15T14:32:30.398Z,24.88
2018-06-15T14:33:39.575Z,24.88
2018-06-15T14:34:48.759Z,24.93
2018-06-15T14:35:58.207Z,24.93
2018-06-15T14:37:07.903Z,24.95
2018-06-15T14:38:17.317Z,24.91
2018-06-15T14:39:26.496Z,24.78
2018-06-15T14:40:36.002Z,24.91
2018-06-15T14:41:45.230Z,24.91
2018-06-15T14:42:54.132Z,24.93
2018-06-15T14:44:03.304Z,24.96
2018-06-15T14:45:12.749Z,24.98
2018-06-15T14:46:22.852Z,24.93
2018-06-15T14:47:32.528Z,24.91
2018-06-15T14:48:41.725Z,24.85
2018-06-15T14:49:51.176Z,24.95
2018-06-15T14:51:00.359Z,24.9
2018-06-15T14:52:09.280Z,24.93
2018-06-15T14:53:18.972Z,24.91
2018-06-15T14:54:28.445Z,24.88
2018-06-15T14:55:37.939Z,24.9
2018-06-15T14:56:47.528Z,24.95
2018-06-15T14:57:57.409Z,24.98